Time;durP1;ratioP1;P1;durP2;ratioP2;P2;SDS_P1;SDS_P2;PMS_P1;PMS_P2;Temp;Humidity;BMP_temperature;BMP_pressure;BME280_temperature;BME280_humidity;BME280_pressure;Samples;Min_cycle;Max_cycle;Signal;HPM_P1;HPM_P2
2022/11/24 00:05:10;;;;;;;9.23;4.50;;;8.80;99.90;;;;;;2617274;54;20471;-80
2022/11/24 00:17:16;;;;;;;11.80;3.80;;;8.50;99.90;;;;;;2616518;54;20398;-80
2022/11/24 00:23:06;;;;;;;12.03;3.50;;;8.50;99.90;;;;;;2616256;54;20154;-81
2022/11/24 00:28:57;;;;;;;12.20;4.47;;;8.40;99.90;;;;;;2616928;54;20483;-82
2022/11/24 00:34:46;;;;;;;14.87;3.57;;;8.50;99.90;;;;;;2615795;54;20428;-82
2022/11/24 00:40:33;;;;;;;12.23;3.97;;;8.30;99.90;;;;;;2615749;54;20395;-82
2022/11/24 00:46:22;;;;;;;12.80;4.30;;;8.30;99.90;;;;;;2615350;54;20134;-81
2022/11/24 00:52:10;;;;;;;15.93;4.23;;;8.40;99.90;;;;;;2616702;54;20531;-82
2022/11/24 00:57:58;;;;;;;12.03;4.30;;;8.30;99.90;;;;;;2615317;54;20138;-80
2022/11/24 01:03:46;;;;;;;14.10;3.27;;;8.40;99.90;;;;;;2616571;54;20129;-81
2022/11/24 01:09:34;;;;;;;16.07;5.83;;;8.40;99.90;;;;;;2616226;39;20858;-81
2022/11/24 01:15:21;;;;;;;17.87;5.17;;;8.30;99.90;;;;;;2615050;54;20150;-82
2022/11/24 01:21:08;;;;;;;22.57;4.67;;;8.40;99.90;;;;;;2614662;54;20499;-82
2022/11/24 01:26:55;;;;;;;19.17;5.23;;;8.30;99.90;;;;;;2614648;54;20686;-82
2022/11/24 01:36:05;;;;;;;17.57;6.30;;;8.40;99.90;;;;;;2614552;54;20482;-81
2022/11/24 01:41:52;;;;;;;11.13;4.17;;;8.60;99.90;;;;;;2614989;54;20411;-81
2022/11/24 01:47:40;;;;;;;12.23;4.00;;;8.60;99.90;;;;;;2615163;54;20130;-81
2022/11/24 01:53:29;;;;;;;8.73;3.63;;;8.70;99.90;;;;;;2615901;54;20953;-81
2022/11/24 01:59:17;;;;;;;16.80;4.40;;;8.60;99.90;;;;;;2615569;54;20415;-81
2022/11/24 02:05:11;;;;;;;10.17;4.07;;;8.80;99.90;;;;;;2615157;54;20476;-81
2022/11/24 02:14:21;;;;;;;14.87;5.40;;;9.00;99.90;;;;;;2614290;54;20482;-82
2022/11/24 02:20:09;;;;;;;8.77;3.70;;;8.90;99.90;;;;;;2615146;39;20802;-82
2022/11/24 02:32:22;;;;;;;3.83;2.73;;;8.90;99.90;;;;;;2615912;54;20420;-82
2022/11/24 02:38:13;;;;;;;10.67;4.27;;;8.90;99.90;;;;;;2615501;54;20399;-80
2022/11/24 02:44:01;;;;;;;13.30;4.47;;;9.00;99.90;;;;;;2616219;54;20395;-81
2022/11/24 02:53:17;;;;;;;13.13;3.63;;;9.00;99.90;;;;;;2616273;39;20992;-80
2022/11/24 02:59:05;;;;;;;9.97;3.00;;;9.00;99.90;;;;;;2616730;54;20422;-82
2022/11/24 03:02:09;;;;;;;12.87;3.90;;;9.10;99.90;;;;;;2615629;47;20415;-82
2022/11/24 03:04:35;;;;;;;12.50;3.73;;;9.00;99.90;;;;;;2616642;54;20660;-82
2022/11/24 03:10:23;;;;;;;17.73;4.20;;;9.10;99.90;;;;;;2616768;54;20536;-84
2022/11/24 03:16:11;;;;;;;11.60;3.77;;;9.10;99.90;;;;;;2617062;31;21039;-84
2022/11/24 03:21:58;;;;;;;12.90;3.63;;;9.00;99.90;;;;;;2617552;54;20150;-83
2022/11/24 03:27:46;;;;;;;17.47;4.70;;;9.20;99.90;;;;;;2616200;54;20134;-83
2022/11/24 03:33:35;;;;;;;13.67;5.00;;;9.10;99.90;;;;;;2616978;54;20139;-77
2022/11/24 03:39:23;;;;;;;18.03;3.53;;;9.20;99.90;;;;;;2616537;54;20418;-80
2022/11/24 03:45:10;;;;;;;13.17;4.67;;;9.00;99.90;;;;;;2615559;54;20146;-79
2022/11/24 03:50:59;;;;;;;13.47;4.60;;;8.90;99.90;;;;;;2615822;39;20652;-79
2022/11/24 04:00:08;;;;;;;18.97;5.27;;;8.60;99.90;;;;;;2615729;54;20375;-79
2022/11/24 04:05:56;;;;;;;14.60;4.50;;;8.70;99.90;;;;;;2615516;54;20388;-77
2022/11/24 04:17:53;;;;;;;17.97;4.23;;;9.00;99.90;;;;;;2616629;54;20403;-77
2022/11/24 04:23:41;;;;;;;14.40;5.00;;;9.00;99.90;;;;;;2618105;54;20411;-77
2022/11/24 04:29:29;;;;;;;11.60;5.10;;;9.20;99.90;;;;;;2618567;46;20575;-80
2022/11/24 04:35:17;;;;;;;16.97;6.87;;;9.10;99.90;;;;;;2617086;54;20419;-78
2022/11/24 04:41:05;;;;;;;15.10;5.77;;;9.10;99.90;;;;;;2617870;39;20786;-77
2022/11/24 04:46:56;;;;;;;14.60;4.97;;;9.10;99.90;;;;;;2617368;54;20502;-78
2022/11/24 04:52:44;;;;;;;11.30;4.87;;;9.20;99.90;;;;;;2617272;54;20903;-78
2022/11/24 04:58:33;;;;;;;10.33;5.03;;;9.10;99.90;;;;;;2617936;39;21055;-78
2022/11/24 05:04:21;;;;;;;17.17;5.20;;;9.10;99.90;;;;;;2617629;39;20651;-77
2022/11/24 05:16:15;;;;;;;14.70;4.70;;;9.20;99.90;;;;;;2616285;54;20376;-82
2022/11/24 05:22:02;;;;;;;24.83;4.73;;;9.30;99.90;;;;;;2616127;54;20238;-81
2022/11/24 05:27:50;;;;;;;15.03;5.67;;;9.40;99.90;;;;;;2616546;54;20140;-82
2022/11/24 05:33:38;;;;;;;17.63;5.67;;;9.40;99.90;;;;;;2617494;46;20608;-83
2022/11/24 05:39:26;;;;;;;11.57;5.20;;;9.40;99.90;;;;;;2617623;54;20400;-83
2022/11/24 05:45:18;;;;;;;20.87;4.50;;;9.30;99.90;;;;;;2617185;54;20166;-85
2022/11/24 05:51:05;;;;;;;18.57;5.47;;;9.30;99.90;;;;;;2616224;54;20696;-81
2022/11/24 05:56:54;;;;;;;14.17;4.43;;;9.10;99.90;;;;;;2616923;54;20158;-83
2022/11/24 06:02:42;;;;;;;22.60;4.87;;;9.10;99.90;;;;;;2617951;39;20782;-78
2022/11/24 06:08:30;;;;;;;22.13;6.10;;;9.20;99.90;;;;;;2617408;54;20150;-78
2022/11/24 06:14:18;;;;;;;15.53;4.40;;;9.20;99.90;;;;;;2617752;54;20146;-78
2022/11/24 06:20:07;;;;;;;12.90;4.47;;;9.20;99.90;;;;;;2617258;54;20133;-78
2022/11/24 06:25:59;;;;;;;18.70;7.00;;;9.10;99.90;;;;;;2616166;54;20392;-77
2022/11/24 06:31:47;;;;;;;18.00;5.03;;;9.10;99.90;;;;;;2616780;54;20423;-78
2022/11/24 06:37:35;;;;;;;21.20;5.90;;;9.10;99.90;;;;;;2616957;54;20133;-77
2022/11/24 06:43:22;;;;;;;12.93;4.40;;;9.00;99.90;;;;;;2616889;54;20704;-78
2022/11/24 06:49:10;;;;;;;19.70;4.70;;;8.90;99.90;;;;;;2617607;54;20123;-78
2022/11/24 06:54:58;;;;;;;14.30;4.30;;;8.90;99.90;;;;;;2616951;54;20635;-78
2022/11/24 07:00:46;;;;;;;16.47;6.40;;;8.80;99.90;;;;;;2616322;54;20122;-78
2022/11/24 07:06:34;;;;;;;9.23;3.50;;;8.90;99.90;;;;;;2616700;54;20159;-77
2022/11/24 07:12:23;;;;;;;12.80;4.80;;;8.90;99.90;;;;;;2616205;54;20239;-77
2022/11/24 07:18:12;;;;;;;14.13;4.63;;;8.80;99.90;;;;;;2616513;54;20394;-78
2022/11/24 07:23:59;;;;;;;16.67;5.13;;;8.80;99.90;;;;;;2616724;54;20395;-78
2022/11/24 07:29:48;;;;;;;10.37;3.47;;;9.00;99.90;;;;;;2616459;54;20130;-78
2022/11/24 07:35:36;;;;;;;14.90;4.67;;;9.10;99.90;;;;;;2617326;54;20519;-78
2022/11/24 07:41:24;;;;;;;7.00;3.23;;;9.20;99.90;;;;;;2616276;54;20624;-83
2022/11/24 07:47:11;;;;;;;9.93;3.50;;;9.30;99.90;;;;;;2617123;39;20541;-83
2022/11/24 07:56:21;;;;;;;6.77;3.00;;;9.40;99.90;;;;;;2618255;54;20415;-77
2022/11/24 08:02:12;;;;;;;9.30;2.87;;;9.40;99.90;;;;;;2616921;54;20153;-78
2022/11/24 08:07:59;;;;;;;7.30;2.20;;;9.40;99.90;;;;;;2617320;54;20374;-79
2022/11/24 08:13:50;;;;;;;4.27;1.83;;;9.30;99.90;;;;;;2617169;54;20139;-79
2022/11/24 08:19:38;;;;;;;4.53;2.07;;;9.20;99.90;;;;;;2617027;54;20924;-80
2022/11/24 08:25:33;;;;;;;3.90;1.93;;;9.20;99.90;;;;;;2616527;54;20122;-78
2022/11/24 08:31:21;;;;;;;5.27;2.00;;;9.30;99.90;;;;;;2616662;54;20394;-78
2022/11/24 08:37:08;;;;;;;4.33;2.10;;;9.40;99.90;;;;;;2616610;54;20884;-82
2022/11/24 08:43:00;;;;;;;3.80;2.90;;;9.40;99.90;;;;;;2616855;54;20894;-78
2022/11/24 08:48:50;;;;;;;9.33;2.47;;;9.40;99.90;;;;;;2617646;54;20433;-79
2022/11/24 08:54:39;;;;;;;6.17;2.80;;;9.40;99.90;;;;;;2616641;54;20451;-82
2022/11/24 08:57:55;;;;;;;3.87;2.33;;;9.30;99.90;;;;;;2615333;54;20924;-84
2022/11/24 09:03:44;;;;;;;4.23;2.30;;;9.00;99.90;;;;;;2617701;54;20434;-84
2022/11/24 09:09:31;;;;;;;9.10;3.00;;;9.00;99.90;;;;;;2617232;54;20382;-84
2022/11/24 09:15:19;;;;;;;5.87;3.07;;;9.10;99.90;;;;;;2616919;46;20267;-82
2022/11/24 09:27:35;;;;;;;4.23;2.53;;;9.50;99.90;;;;;;2616625;54;20375;-85
2022/11/24 09:33:22;;;;;;;9.17;3.97;;;9.60;99.90;;;;;;2616686;54;20387;-84
2022/11/24 09:39:10;;;;;;;10.50;4.83;;;9.70;99.90;;;;;;2616925;54;20122;-84
2022/11/24 09:51:48;;;;;;;9.10;3.70;;;9.90;99.90;;;;;;2616165;54;20405;-82
2022/11/24 09:57:40;;;;;;;7.20;4.13;;;10.00;99.90;;;;;;2615583;54;20450;-84
2022/11/24 10:03:36;;;;;;;8.37;4.33;;;9.80;99.90;;;;;;2616518;54;20383;-84
2022/11/24 10:22:56;;;;;;;7.43;4.50;;;9.80;99.90;;;;;;2616718;54;20379;-84
2022/11/24 10:35:44;;;;;;;13.83;4.80;;;9.90;99.90;;;;;;2616217;46;20891;-82
2022/11/24 10:41:40;;;;;;;7.80;4.13;;;10.00;99.90;;;;;;2615261;54;20427;-84
2022/11/24 10:47:29;;;;;;;8.10;3.50;;;10.90;99.90;;;;;;2616222;54;20426;-83
2022/11/24 10:59:46;;;;;;;7.40;4.20;;;12.60;99.90;;;;;;2615284;54;20438;-82
2022/11/24 11:05:43;;;;;;;8.80;4.20;;;12.00;99.90;;;;;;2616198;54;20140;-82
2022/11/24 11:08:14;;;;;;;10.10;5.43;;;11.50;99.90;;;;;;2615047;47;20407;-82
2022/11/24 11:10:42;;;;;;;9.43;6.33;;;11.10;99.90;;;;;;2616073;47;20404;-82
2022/11/24 11:22:55;;;;;;;6.30;4.40;;;11.70;99.90;;;;;;2616804;54;20412;-82
2022/11/24 11:35:25;;;;;;;10.70;4.97;;;11.00;99.90;;;;;;2618155;54;20414;-83
2022/11/24 11:48:00;;;;;;;12.73;5.27;;;11.20;99.90;;;;;;2618656;54;20400;-83
2022/11/24 12:10:52;;;;;;;7.37;5.10;;;11.70;99.90;;;;;;2620197;46;20402;-83
2022/11/24 12:16:51;;;;;;;5.03;4.23;;;11.60;99.90;;;;;;2623015;54;20439;-83
2022/11/24 12:22:38;;;;;;;11.17;5.00;;;11.40;99.90;;;;;;2620723;54;20418;-81
2022/11/24 12:35:23;;;;;;;16.60;5.43;;;13.10;99.90;;;;;;2624848;54;20372;-81
2022/11/24 12:48:02;;;;;;;12.80;6.67;;;16.40;52.00;;;;;;2617448;54;20371;-82
2022/11/24 12:53:52;;;;;;;11.27;6.63;;;16.10;49.20;;;;;;2617223;54;20379;-83
2022/11/24 13:06:11;;;;;;;17.47;6.13;;;14.80;59.40;;;;;;2616411;54;20402;-83
2022/11/24 13:18:56;;;;;;;15.20;7.70;;;16.00;47.30;;;;;;2616589;39;20902;-84
2022/11/24 13:24:44;;;;;;;14.10;5.93;;;14.50;42.50;;;;;;2616477;54;20380;-83
2022/11/24 13:30:33;;;;;;;11.37;5.87;;;14.40;66.90;;;;;;2618599;54;20548;-79
2022/11/24 13:36:23;;;;;;;14.60;5.33;;;12.70;92.80;;;;;;2618308;54;20436;-78
2022/11/24 13:42:12;;;;;;;11.23;5.20;;;15.30;68.50;;;;;;2618154;54;20446;-78
2022/11/24 13:45:00;;;;;;;8.07;5.30;;;16.10;51.70;;;;;;2618336;39;20858;-78
2022/11/24 13:47:42;;;;;;;12.30;6.80;;;16.60;45.40;;;;;;2617091;54;20977;-78
2022/11/24 13:53:45;;;;;;;15.70;7.70;;;14.90;46.70;;;;;;2616729;39;20875;-77
2022/11/24 13:59:36;;;;;;;15.80;6.23;;;15.80;47.10;;;;;;2616251;54;20435;-77
2022/11/24 14:18:46;;;;;;;11.23;6.23;;;14.30;79.90;;;;;;2616510;54;20367;-78
2022/11/24 14:24:33;;;;;;;14.47;6.17;;;12.90;95.20;;;;;;2617086;39;20759;-78
2022/11/24 14:30:23;;;;;;;9.90;5.47;;;12.60;98.60;;;;;;2616502;54;20169;-79
2022/11/24 14:36:16;;;;;;;10.17;6.73;;;11.80;99.90;;;;;;2616785;54;20387;-79
2022/11/24 14:45:36;;;;;;;14.80;5.67;;;11.40;99.90;;;;;;2617019;54;20375;-80
2022/11/24 14:48:01;;;;;;;19.53;5.60;;;11.10;99.90;;;;;;2616668;46;20989;-79
2022/11/24 14:53:53;;;;;;;11.17;5.13;;;11.00;99.90;;;;;;2616671;54;20606;-80
2022/11/24 14:59:40;;;;;;;15.77;5.50;;;10.80;99.90;;;;;;2617052;54;20930;-78
2022/11/24 15:05:53;;;;;;;8.63;5.47;;;10.70;99.90;;;;;;2616692;54;20796;-80
2022/11/24 15:11:40;;;;;;;12.20;5.47;;;10.30;99.90;;;;;;2616602;54;20448;-80
2022/11/24 15:17:28;;;;;;;13.57;6.80;;;10.10;99.90;;;;;;2616548;54;20122;-80
2022/11/24 15:23:35;;;;;;;23.40;6.87;;;10.00;99.90;;;;;;2618206;54;20383;-79
2022/11/24 15:29:22;;;;;;;10.90;5.50;;;9.80;99.90;;;;;;2618294;54;20404;-79
2022/11/24 15:35:11;;;;;;;13.83;6.83;;;9.60;99.90;;;;;;2618103;54;20122;-79
2022/11/24 15:41:00;;;;;;;24.07;5.80;;;9.30;99.90;;;;;;2618215;39;20496;-78
2022/11/24 15:46:47;;;;;;;14.70;7.20;;;8.90;99.90;;;;;;2615868;54;20407;-82
2022/11/24 15:52:35;;;;;;;18.17;7.60;;;8.70;99.90;;;;;;2616007;54;20157;-83
2022/11/24 15:58:22;;;;;;;12.90;6.20;;;8.60;99.90;;;;;;2615984;54;20378;-83
2022/11/24 16:04:12;;;;;;;19.97;6.23;;;8.70;99.90;;;;;;2615244;54;20403;-83
2022/11/24 16:09:59;;;;;;;16.33;6.70;;;8.80;99.90;;;;;;2614691;54;20439;-83
2022/11/24 16:13:11;;;;;;;14.10;6.23;;;8.80;99.90;;;;;;2616114;31;20860;-82
2022/11/24 16:18:58;;;;;;;12.43;4.80;;;8.80;99.90;;;;;;2616577;54;20962;-83
2022/11/24 16:24:45;;;;;;;15.33;6.27;;;8.70;99.90;;;;;;2616760;54;20717;-83
2022/11/24 16:30:32;;;;;;;12.30;6.10;;;8.70;99.90;;;;;;2616728;54;20720;-84
2022/11/24 16:36:19;;;;;;;14.93;6.63;;;8.70;99.90;;;;;;2617353;54;20118;-84
2022/11/24 16:42:07;;;;;;;25.03;9.00;;;8.30;99.90;;;;;;2616876;54;20258;-80
2022/11/24 16:47:54;;;;;;;16.47;7.00;;;8.10;99.90;;;;;;2617028;39;20641;-78
2022/11/24 16:53:42;;;;;;;12.93;5.50;;;8.30;99.90;;;;;;2617299;54;20150;-79
2022/11/24 16:59:28;;;;;;;10.03;6.50;;;8.30;99.90;;;;;;2617169;54;20376;-81
2022/11/24 17:05:19;;;;;;;21.20;6.93;;;8.10;99.90;;;;;;2617466;46;20122;-80
2022/11/24 17:14:49;;;;;;;19.83;6.30;;;8.20;99.90;;;;;;2617256;46;20402;-79
2022/11/24 17:20:36;;;;;;;18.03;6.90;;;8.50;99.90;;;;;;2616921;54;20488;-80
2022/11/24 17:26:25;;;;;;;10.50;4.80;;;8.50;99.90;;;;;;2617019;54;20135;-80
2022/11/24 17:32:12;;;;;;;20.00;6.33;;;8.50;99.90;;;;;;2618179;54;20426;-80
2022/11/24 17:38:00;;;;;;;11.87;6.27;;;8.70;99.90;;;;;;2618324;54;20123;-80
2022/11/24 17:43:52;;;;;;;14.23;7.63;;;8.70;99.90;;;;;;2618287;54;20522;-79
2022/11/24 17:49:40;;;;;;;17.50;5.93;;;8.90;99.90;;;;;;2618263;54;20375;-80
2022/11/24 17:55:28;;;;;;;9.97;6.40;;;9.00;99.90;;;;;;2618205;54;20121;-80
2022/11/24 18:01:15;;;;;;;15.73;5.33;;;9.10;99.90;;;;;;2618280;54;20170;-81
2022/11/24 18:07:04;;;;;;;11.70;5.30;;;9.10;99.90;;;;;;2617935;54;20667;-79
2022/11/24 18:16:39;;;;;;;12.57;5.77;;;9.00;99.90;;;;;;2617876;54;20410;-79
2022/11/24 18:22:27;;;;;;;10.57;4.87;;;9.00;99.90;;;;;;2616471;54;20402;-80
2022/11/24 18:28:14;;;;;;;18.20;5.93;;;8.90;99.90;;;;;;2616925;39;20611;-80
2022/11/24 18:34:03;;;;;;;13.20;5.90;;;8.90;99.90;;;;;;2617287;54;20129;-81
2022/11/24 18:39:50;;;;;;;6.13;4.40;;;8.90;99.90;;;;;;2616928;54;20359;-80
2022/11/24 18:45:38;;;;;;;11.97;4.77;;;8.80;99.90;;;;;;2616900;54;20130;-80
2022/11/24 18:51:26;;;;;;;17.17;5.40;;;8.90;99.90;;;;;;2617322;54;20126;-80
2022/11/24 19:00:34;;;;;;;11.77;6.13;;;8.70;99.90;;;;;;2617066;54;20396;-81
2022/11/24 19:06:30;;;;;;;9.70;4.83;;;8.60;99.90;;;;;;2617817;54;20122;-79
2022/11/24 19:16:28;;;;;;;12.93;4.90;;;8.50;99.90;;;;;;2617179;54;20371;-79
2022/11/24 19:22:16;;;;;;;9.53;4.57;;;8.40;99.90;;;;;;2617030;54;20372;-79
2022/11/24 19:28:04;;;;;;;10.90;5.20;;;8.40;99.90;;;;;;2617194;54;20971;-79
2022/11/24 19:33:53;;;;;;;8.70;5.27;;;8.30;99.90;;;;;;2616810;54;20924;-80
2022/11/24 19:39:40;;;;;;;12.57;4.20;;;8.20;99.90;;;;;;2617237;54;20988;-80
2022/11/24 19:45:28;;;;;;;7.60;4.70;;;8.20;99.90;;;;;;2618372;54;20139;-79
2022/11/24 19:51:19;;;;;;;10.80;4.67;;;8.10;99.90;;;;;;2619314;54;20698;-79
2022/11/24 19:57:06;;;;;;;18.03;5.93;;;8.20;99.90;;;;;;2617586;54;20358;-80
2022/11/24 20:02:53;;;;;;;19.47;5.33;;;8.40;99.90;;;;;;2617863;54;20402;-79
2022/11/24 20:08:42;;;;;;;14.03;4.43;;;8.30;99.90;;;;;;2617676;54;20191;-80
2022/11/24 20:12:00;;;;;;;9.63;4.77;;;8.40;99.90;;;;;;2618121;31;20904;-80
2022/11/24 20:17:49;;;;;;;16.50;5.40;;;8.50;99.90;;;;;;2617407;54;20530;-78
2022/11/24 20:21:04;;;;;;;9.63;4.23;;;8.40;99.90;;;;;;2617332;46;20498;-79
2022/11/24 20:26:55;;;;;;;9.73;4.93;;;8.60;99.90;;;;;;2617200;54;20488;-80
2022/11/24 20:32:42;;;;;;;10.83;4.40;;;8.50;99.90;;;;;;2618152;39;20838;-80
2022/11/24 20:38:30;;;;;;;10.37;5.10;;;8.40;99.90;;;;;;2617466;54;20698;-81
2022/11/24 20:44:20;;;;;;;11.63;5.60;;;8.30;99.90;;;;;;2617297;54;20354;-82
2022/11/24 20:53:29;;;;;;;8.63;4.63;;;8.30;99.90;;;;;;2617131;54;20464;-83
2022/11/24 20:59:22;;;;;;;12.03;4.93;;;8.20;99.90;;;;;;2616646;54;20364;-80
2022/11/24 21:05:10;;;;;;;6.10;4.60;;;8.10;99.90;;;;;;2617072;54;20428;-83
2022/11/24 21:11:01;;;;;;;11.03;4.90;;;8.20;99.90;;;;;;2616542;54;20310;-81
2022/11/24 21:23:14;;;;;;;11.03;3.80;;;8.20;99.90;;;;;;2617275;54;20391;-82
2022/11/24 21:29:02;;;;;;;7.10;3.70;;;8.10;99.90;;;;;;2619379;54;20448;-81
2022/11/24 21:34:52;;;;;;;12.77;4.57;;;8.10;99.90;;;;;;2619265;54;20417;-81
2022/11/24 21:40:40;;;;;;;19.90;4.60;;;8.20;99.90;;;;;;2618788;54;20489;-81
2022/11/24 21:43:05;;;;;;;16.83;5.73;;;8.20;99.90;;;;;;2617760;47;20440;-82
2022/11/24 21:45:33;;;;;;;23.40;4.60;;;8.10;99.90;;;;;;2618859;47;20163;-82
2022/11/24 21:51:20;;;;;;;19.40;4.80;;;8.20;99.90;;;;;;2618562;54;20466;-82
2022/11/24 21:57:08;;;;;;;8.90;4.87;;;8.10;99.90;;;;;;2617157;54;20130;-83
2022/11/24 22:02:56;;;;;;;14.73;5.57;;;8.20;99.90;;;;;;2618050;54;20361;-83
2022/11/24 22:08:43;;;;;;;9.50;4.63;;;8.10;99.90;;;;;;2618288;54;20407;-81
2022/11/24 22:14:31;;;;;;;17.77;4.77;;;8.10;99.90;;;;;;2618748;54;20421;-82
2022/11/24 22:16:56;;;;;;;12.60;4.23;;;8.00;99.90;;;;;;2617424;47;20491;-83
2022/11/24 22:19:22;;;;;;;11.43;4.17;;;8.10;99.90;;;;;;2615452;47;20282;-83
2022/11/24 22:25:09;;;;;;;9.63;4.57;;;8.10;99.90;;;;;;2616864;54;20123;-82
2022/11/24 22:31:00;;;;;;;8.73;4.47;;;8.00;99.90;;;;;;2616544;54;20126;-82
2022/11/24 22:40:55;;;;;;;11.30;4.00;;;8.10;99.90;;;;;;2615962;54;20651;-83
2022/11/24 22:46:42;;;;;;;10.83;4.70;;;8.40;99.90;;;;;;2616083;54;20432;-83
2022/11/24 22:52:30;;;;;;;8.07;4.47;;;8.40;99.90;;;;;;2615754;54;20122;-81
2022/11/24 22:58:17;;;;;;;11.93;3.93;;;8.80;99.90;;;;;;2618485;54;20688;-81
2022/11/24 23:04:04;;;;;;;9.40;4.80;;;8.90;99.90;;;;;;2617915;54;20263;-82
2022/11/24 23:09:55;;;;;;;12.00;4.53;;;9.00;99.90;;;;;;2617304;54;20134;-82
2022/11/24 23:15:42;;;;;;;12.53;5.20;;;9.10;99.90;;;;;;2617870;54;20435;-83
2022/11/24 23:18:08;;;;;;;13.03;4.73;;;9.00;99.90;;;;;;2616826;54;20953;-82
2022/11/24 23:24:49;;;;;;;10.77;4.30;;;9.00;99.90;;;;;;2618340;54;20266;-81
2022/11/24 23:30:39;;;;;;;11.37;5.33;;;9.10;99.90;;;;;;2618482;54;20435;-79
2022/11/24 23:36:28;;;;;;;7.93;3.93;;;9.00;99.90;;;;;;2618245;54;20955;-83
2022/11/24 23:42:15;;;;;;;10.33;4.80;;;9.00;99.90;;;;;;2617323;54;20415;-82
2022/11/24 23:48:03;;;;;;;12.93;6.50;;;9.00;99.90;;;;;;2617700;54;20154;-82
2022/11/24 23:53:53;;;;;;;13.50;4.90;;;9.10;99.90;;;;;;2617878;54;20406;-82
2022/11/24 23:59:41;;;;;;;9.90;4.63;;;9.10;99.90;;;;;;2617668;54;20355;-83
